Inlet Island, Washington
Current Conditions -  °F | °C
As of 6:53 PM on Sunday 21 Dec 2014 (Local Time) from KTCM Reporting Station
Overcast Overcast  
Wind Chill: 50°   Ceiling: 2000
Heat Index: 50°   Visibility: 10mi
Dew Point: 48°   Wind: 7mph
Humidity: 94%   Direction: 180°S
Pressure: 30.09"   Gusts: NA
Location:  47.1874°N, 122.164°W
Report Text: KTCM 220253Z AUTO 18006KT 10SM BKN020 OVC130 10/09 A3009 RMK AO2 CIG 020V130 BKN V FEW
Loading
Personal Weather Stations






























Interactive Weather Map New forecast layout! Learn more

10-Day Weather Forecast

Advertisements
Track Severe Weather on mobile